sensor_id;sensor_type;location;lat;lon;timestamp;P1;durP1;ratioP1;P2;durP2;ratioP2
75680;SDS011;64294;49.176;16.626;2023-06-14T00:01:31;5.55;;;3.35;;
75680;SDS011;64294;49.176;16.626;2023-06-14T00:03:59;4.38;;;3.10;;
75680;SDS011;64294;49.176;16.626;2023-06-14T00:06:30;6.13;;;2.88;;
75680;SDS011;64294;49.176;16.626;2023-06-14T00:08:56;5.93;;;3.47;;
75680;SDS011;64294;49.176;16.626;2023-06-14T00:11:21;6.32;;;3.20;;
75680;SDS011;64294;49.176;16.626;2023-06-14T00:13:47;4.90;;;3.10;;
75680;SDS011;64294;49.176;16.626;2023-06-14T00:16:12;7.10;;;3.00;;
75680;SDS011;64294;49.176;16.626;2023-06-14T00:18:38;5.82;;;2.92;;
75680;SDS011;64294;49.176;16.626;2023-06-14T00:21:04;4.95;;;3.15;;
75680;SDS011;64294;49.176;16.626;2023-06-14T00:23:29;6.70;;;3.10;;
75680;SDS011;64294;49.176;16.626;2023-06-14T00:25:55;5.65;;;2.90;;
75680;SDS011;64294;49.176;16.626;2023-06-14T00:28:20;5.00;;;3.05;;
75680;SDS011;64294;49.176;16.626;2023-06-14T00:30:46;4.75;;;2.72;;
75680;SDS011;64294;49.176;16.626;2023-06-14T00:33:12;6.65;;;3.08;;
75680;SDS011;64294;49.176;16.626;2023-06-14T00:35:37;5.00;;;3.30;;
75680;SDS011;64294;49.176;16.626;2023-06-14T00:38:03;5.90;;;3.17;;
75680;SDS011;64294;49.176;16.626;2023-06-14T00:40:28;6.65;;;3.30;;
75680;SDS011;64294;49.176;16.626;2023-06-14T00:42:54;5.45;;;3.00;;
75680;SDS011;64294;49.176;16.626;2023-06-14T00:45:19;5.78;;;3.00;;
75680;SDS011;64294;49.176;16.626;2023-06-14T00:47:45;6.55;;;3.25;;
75680;SDS011;64294;49.176;16.626;2023-06-14T00:50:11;7.65;;;2.83;;
75680;SDS011;64294;49.176;16.626;2023-06-14T00:52:38;5.70;;;3.35;;
75680;SDS011;64294;49.176;16.626;2023-06-14T00:55:05;6.28;;;3.40;;
75680;SDS011;64294;49.176;16.626;2023-06-14T00:57:31;7.22;;;3.08;;
75680;SDS011;64294;49.176;16.626;2023-06-14T00:59:57;5.38;;;3.17;;
75680;SDS011;64294;49.176;16.626;2023-06-14T01:02:23;6.05;;;3.22;;
75680;SDS011;64294;49.176;16.626;2023-06-14T01:04:49;8.48;;;3.10;;
75680;SDS011;64294;49.176;16.626;2023-06-14T01:15:40;5.65;;;3.22;;
75680;SDS011;64294;49.176;16.626;2023-06-14T01:18:08;6.38;;;3.15;;
75680;SDS011;64294;49.176;16.626;2023-06-14T01:20:42;6.03;;;2.97;;
75680;SDS011;64294;49.176;16.626;2023-06-14T01:23:10;5.38;;;3.17;;
75680;SDS011;64294;49.176;16.626;2023-06-14T01:25:39;3.85;;;2.80;;
75680;SDS011;64294;49.176;16.626;2023-06-14T01:28:06;5.57;;;3.05;;
75680;SDS011;64294;49.176;16.626;2023-06-14T01:30:35;6.93;;;3.08;;
75680;SDS011;64294;49.176;16.626;2023-06-14T01:33:10;5.28;;;2.95;;
75680;SDS011;64294;49.176;16.626;2023-06-14T01:35:44;4.47;;;2.90;;
75680;SDS011;64294;49.176;16.626;2023-06-14T01:38:13;6.53;;;3.30;;
75680;SDS011;64294;49.176;16.626;2023-06-14T01:40:43;5.10;;;2.60;;
75680;SDS011;64294;49.176;16.626;2023-06-14T01:43:10;5.50;;;3.10;;
75680;SDS011;64294;49.176;16.626;2023-06-14T01:45:38;5.78;;;2.83;;
75680;SDS011;64294;49.176;16.626;2023-06-14T01:48:06;5.38;;;2.90;;
75680;SDS011;64294;49.176;16.626;2023-06-14T01:50:32;4.45;;;3.00;;
75680;SDS011;64294;49.176;16.626;2023-06-14T01:52:58;6.30;;;3.13;;
75680;SDS011;64294;49.176;16.626;2023-06-14T01:55:23;5.75;;;2.97;;
75680;SDS011;64294;49.176;16.626;2023-06-14T01:57:50;5.40;;;2.80;;
75680;SDS011;64294;49.176;16.626;2023-06-14T02:00:16;5.78;;;2.70;;
75680;SDS011;64294;49.176;16.626;2023-06-14T02:02:43;4.50;;;2.90;;
75680;SDS011;64294;49.176;16.626;2023-06-14T02:05:09;5.40;;;2.90;;
75680;SDS011;64294;49.176;16.626;2023-06-14T02:07:35;4.95;;;3.10;;
75680;SDS011;64294;49.176;16.626;2023-06-14T02:10:02;6.05;;;2.90;;
75680;SDS011;64294;49.176;16.626;2023-06-14T02:12:28;7.25;;;3.15;;
75680;SDS011;64294;49.176;16.626;2023-06-14T02:14:53;6.20;;;2.88;;
75680;SDS011;64294;49.176;16.626;2023-06-14T02:17:19;4.28;;;2.83;;
75680;SDS011;64294;49.176;16.626;2023-06-14T02:19:45;4.78;;;3.05;;
75680;SDS011;64294;49.176;16.626;2023-06-14T02:22:11;4.35;;;2.67;;
75680;SDS011;64294;49.176;16.626;2023-06-14T02:24:36;6.03;;;3.03;;
75680;SDS011;64294;49.176;16.626;2023-06-14T02:27:02;6.00;;;2.80;;
75680;SDS011;64294;49.176;16.626;2023-06-14T02:29:28;4.78;;;2.67;;
75680;SDS011;64294;49.176;16.626;2023-06-14T02:31:53;6.00;;;2.80;;
75680;SDS011;64294;49.176;16.626;2023-06-14T02:34:19;5.05;;;2.50;;
75680;SDS011;64294;49.176;16.626;2023-06-14T02:36:46;4.32;;;2.75;;
75680;SDS011;64294;49.176;16.626;2023-06-14T02:39:12;5.18;;;2.70;;
75680;SDS011;64294;49.176;16.626;2023-06-14T02:41:38;4.18;;;2.45;;
75680;SDS011;64294;49.176;16.626;2023-06-14T02:44:04;5.38;;;2.80;;
75680;SDS011;64294;49.176;16.626;2023-06-14T02:46:30;5.00;;;2.78;;
75680;SDS011;64294;49.176;16.626;2023-06-14T02:48:55;4.93;;;2.85;;
75680;SDS011;64294;49.176;16.626;2023-06-14T02:51:20;6.93;;;2.88;;
75680;SDS011;64294;49.176;16.626;2023-06-14T02:53:46;10.27;;;2.90;;
75680;SDS011;64294;49.176;16.626;2023-06-14T02:56:11;4.25;;;2.80;;
75680;SDS011;64294;49.176;16.626;2023-06-14T02:58:37;5.43;;;2.72;;
75680;SDS011;64294;49.176;16.626;2023-06-14T03:01:04;4.82;;;2.85;;
75680;SDS011;64294;49.176;16.626;2023-06-14T03:03:32;6.00;;;3.00;;
75680;SDS011;64294;49.176;16.626;2023-06-14T03:05:58;6.95;;;2.90;;
75680;SDS011;64294;49.176;16.626;2023-06-14T03:08:29;6.18;;;2.60;;
75680;SDS011;64294;49.176;16.626;2023-06-14T03:10:56;3.65;;;2.45;;
75680;SDS011;64294;49.176;16.626;2023-06-14T03:13:22;5.20;;;2.80;;
75680;SDS011;64294;49.176;16.626;2023-06-14T03:15:48;3.05;;;2.50;;
75680;SDS011;64294;49.176;16.626;2023-06-14T03:18:16;3.70;;;2.45;;
75680;SDS011;64294;49.176;16.626;2023-06-14T03:20:42;4.22;;;2.90;;
75680;SDS011;64294;49.176;16.626;2023-06-14T03:23:08;4.07;;;2.45;;
75680;SDS011;64294;49.176;16.626;2023-06-14T03:25:34;4.13;;;2.65;;
75680;SDS011;64294;49.176;16.626;2023-06-14T03:28:03;4.68;;;2.40;;
75680;SDS011;64294;49.176;16.626;2023-06-14T03:30:30;6.80;;;2.67;;
75680;SDS011;64294;49.176;16.626;2023-06-14T03:32:55;4.70;;;2.50;;
75680;SDS011;64294;49.176;16.626;2023-06-14T03:35:21;5.00;;;2.60;;
75680;SDS011;64294;49.176;16.626;2023-06-14T03:37:48;6.05;;;2.80;;
75680;SDS011;64294;49.176;16.626;2023-06-14T03:40:15;5.47;;;2.65;;
75680;SDS011;64294;49.176;16.626;2023-06-14T03:42:41;6.32;;;2.90;;
75680;SDS011;64294;49.176;16.626;2023-06-14T03:45:07;4.57;;;2.50;;
75680;SDS011;64294;49.176;16.626;2023-06-14T03:47:33;3.65;;;2.70;;
75680;SDS011;64294;49.176;16.626;2023-06-14T03:49:59;5.20;;;2.55;;
75680;SDS011;64294;49.176;16.626;2023-06-14T03:52:25;4.18;;;2.53;;
75680;SDS011;64294;49.176;16.626;2023-06-14T03:54:51;6.45;;;2.80;;
75680;SDS011;64294;49.176;16.626;2023-06-14T03:57:17;4.40;;;2.78;;
75680;SDS011;64294;49.176;16.626;2023-06-14T03:59:42;3.25;;;2.35;;
75680;SDS011;64294;49.176;16.626;2023-06-14T04:02:08;7.45;;;2.72;;
75680;SDS011;64294;49.176;16.626;2023-06-14T04:04:40;5.18;;;2.60;;
75680;SDS011;64294;49.176;16.626;2023-06-14T04:07:12;6.20;;;2.47;;
75680;SDS011;64294;49.176;16.626;2023-06-14T04:09:38;4.07;;;2.70;;
75680;SDS011;64294;49.176;16.626;2023-06-14T04:12:05;7.50;;;2.50;;
75680;SDS011;64294;49.176;16.626;2023-06-14T04:14:31;3.30;;;2.55;;
75680;SDS011;64294;49.176;16.626;2023-06-14T04:16:58;6.50;;;2.70;;
75680;SDS011;64294;49.176;16.626;2023-06-14T04:19:23;5.63;;;2.40;;
75680;SDS011;64294;49.176;16.626;2023-06-14T04:21:49;7.10;;;2.72;;
75680;SDS011;64294;49.176;16.626;2023-06-14T04:24:15;7.10;;;2.90;;
75680;SDS011;64294;49.176;16.626;2023-06-14T04:26:41;3.22;;;2.40;;
75680;SDS011;64294;49.176;16.626;2023-06-14T04:29:12;5.22;;;3.15;;
75680;SDS011;64294;49.176;16.626;2023-06-14T04:31:42;11.70;;;6.40;;
75680;SDS011;64294;49.176;16.626;2023-06-14T04:34:09;4.40;;;2.92;;
75680;SDS011;64294;49.176;16.626;2023-06-14T04:36:41;6.15;;;3.05;;
75680;SDS011;64294;49.176;16.626;2023-06-14T04:39:12;7.07;;;2.40;;
75680;SDS011;64294;49.176;16.626;2023-06-14T04:41:38;4.85;;;2.30;;
75680;SDS011;64294;49.176;16.626;2023-06-14T04:44:03;4.88;;;2.78;;
75680;SDS011;64294;49.176;16.626;2023-06-14T04:46:29;5.30;;;2.78;;
75680;SDS011;64294;49.176;16.626;2023-06-14T04:48:55;5.85;;;2.40;;
75680;SDS011;64294;49.176;16.626;2023-06-14T04:51:21;4.63;;;2.50;;
75680;SDS011;64294;49.176;16.626;2023-06-14T04:53:55;5.78;;;2.45;;
75680;SDS011;64294;49.176;16.626;2023-06-14T04:56:23;4.32;;;2.40;;
75680;SDS011;64294;49.176;16.626;2023-06-14T04:58:51;3.70;;;2.42;;
75680;SDS011;64294;49.176;16.626;2023-06-14T05:01:18;5.32;;;2.50;;
75680;SDS011;64294;49.176;16.626;2023-06-14T05:03:44;3.95;;;2.45;;
75680;SDS011;64294;49.176;16.626;2023-06-14T05:06:13;6.22;;;2.30;;
75680;SDS011;64294;49.176;16.626;2023-06-14T05:08:39;3.97;;;2.25;;
75680;SDS011;64294;49.176;16.626;2023-06-14T05:11:04;6.07;;;2.30;;
75680;SDS011;64294;49.176;16.626;2023-06-14T05:13:29;8.07;;;2.30;;
75680;SDS011;64294;49.176;16.626;2023-06-14T05:15:57;7.82;;;2.75;;
75680;SDS011;64294;49.176;16.626;2023-06-14T05:18:24;5.28;;;2.55;;
75680;SDS011;64294;49.176;16.626;2023-06-14T05:20:50;7.13;;;2.30;;
75680;SDS011;64294;49.176;16.626;2023-06-14T05:23:16;4.88;;;2.85;;
75680;SDS011;64294;49.176;16.626;2023-06-14T05:25:45;5.10;;;2.60;;
75680;SDS011;64294;49.176;16.626;2023-06-14T05:28:10;3.45;;;2.25;;
75680;SDS011;64294;49.176;16.626;2023-06-14T05:30:37;8.85;;;2.70;;
75680;SDS011;64294;49.176;16.626;2023-06-14T05:33:03;4.43;;;2.30;;
75680;SDS011;64294;49.176;16.626;2023-06-14T05:35:29;5.88;;;2.40;;
75680;SDS011;64294;49.176;16.626;2023-06-14T05:37:54;4.45;;;2.22;;
75680;SDS011;64294;49.176;16.626;2023-06-14T05:40:20;7.82;;;2.42;;
75680;SDS011;64294;49.176;16.626;2023-06-14T05:42:45;6.13;;;2.42;;
75680;SDS011;64294;49.176;16.626;2023-06-14T05:45:11;4.88;;;2.33;;
75680;SDS011;64294;49.176;16.626;2023-06-14T05:47:36;4.45;;;2.25;;
75680;SDS011;64294;49.176;16.626;2023-06-14T05:50:02;5.05;;;2.20;;
75680;SDS011;64294;49.176;16.626;2023-06-14T05:52:28;5.65;;;2.53;;
75680;SDS011;64294;49.176;16.626;2023-06-14T05:54:54;4.68;;;2.70;;
75680;SDS011;64294;49.176;16.626;2023-06-14T05:57:20;6.05;;;2.40;;
75680;SDS011;64294;49.176;16.626;2023-06-14T05:59:46;5.95;;;2.47;;
75680;SDS011;64294;49.176;16.626;2023-06-14T06:02:11;6.70;;;2.60;;
75680;SDS011;64294;49.176;16.626;2023-06-14T06:04:36;6.30;;;2.53;;
75680;SDS011;64294;49.176;16.626;2023-06-14T06:07:02;8.13;;;3.13;;
75680;SDS011;64294;49.176;16.626;2023-06-14T06:09:28;4.57;;;2.22;;
75680;SDS011;64294;49.176;16.626;2023-06-14T06:11:54;4.32;;;2.20;;
75680;SDS011;64294;49.176;16.626;2023-06-14T06:14:19;6.68;;;2.63;;
75680;SDS011;64294;49.176;16.626;2023-06-14T06:16:45;6.38;;;2.50;;
75680;SDS011;64294;49.176;16.626;2023-06-14T06:19:10;5.72;;;2.58;;
75680;SDS011;64294;49.176;16.626;2023-06-14T06:21:36;4.43;;;2.45;;
75680;SDS011;64294;49.176;16.626;2023-06-14T06:24:01;4.50;;;2.40;;
75680;SDS011;64294;49.176;16.626;2023-06-14T06:26:31;5.93;;;2.30;;
75680;SDS011;64294;49.176;16.626;2023-06-14T06:28:57;8.80;;;2.45;;
75680;SDS011;64294;49.176;16.626;2023-06-14T06:31:23;6.65;;;2.42;;
75680;SDS011;64294;49.176;16.626;2023-06-14T06:33:49;7.72;;;2.22;;
75680;SDS011;64294;49.176;16.626;2023-06-14T06:36:15;8.50;;;2.50;;
75680;SDS011;64294;49.176;16.626;2023-06-14T06:38:41;6.53;;;2.42;;
75680;SDS011;64294;49.176;16.626;2023-06-14T06:41:07;5.75;;;2.28;;
75680;SDS011;64294;49.176;16.626;2023-06-14T06:43:36;4.00;;;2.00;;
75680;SDS011;64294;49.176;16.626;2023-06-14T06:46:01;5.47;;;2.30;;
75680;SDS011;64294;49.176;16.626;2023-06-14T06:48:27;3.25;;;2.10;;
75680;SDS011;64294;49.176;16.626;2023-06-14T06:50:52;4.75;;;2.40;;
75680;SDS011;64294;49.176;16.626;2023-06-14T06:53:18;9.60;;;2.60;;
75680;SDS011;64294;49.176;16.626;2023-06-14T06:55:44;6.25;;;2.10;;
75680;SDS011;64294;49.176;16.626;2023-06-14T06:58:09;3.70;;;1.80;;
75680;SDS011;64294;49.176;16.626;2023-06-14T07:00:35;9.27;;;2.42;;
75680;SDS011;64294;49.176;16.626;2023-06-14T07:03:01;6.00;;;2.45;;
75680;SDS011;64294;49.176;16.626;2023-06-14T07:05:28;9.00;;;2.78;;
75680;SDS011;64294;49.176;16.626;2023-06-14T07:07:54;11.40;;;2.65;;
75680;SDS011;64294;49.176;16.626;2023-06-14T07:10:19;5.65;;;2.30;;
75680;SDS011;64294;49.176;16.626;2023-06-14T07:12:45;10.65;;;3.45;;
75680;SDS011;64294;49.176;16.626;2023-06-14T07:15:11;8.05;;;2.10;;
75680;SDS011;64294;49.176;16.626;2023-06-14T07:17:36;3.88;;;1.80;;
75680;SDS011;64294;49.176;16.626;2023-06-14T07:20:02;3.58;;;1.83;;
75680;SDS011;64294;49.176;16.626;2023-06-14T07:22:32;6.55;;;2.10;;
75680;SDS011;64294;49.176;16.626;2023-06-14T07:24:58;2.67;;;2.00;;
75680;SDS011;64294;49.176;16.626;2023-06-14T07:27:23;4.15;;;1.85;;
75680;SDS011;64294;49.176;16.626;2023-06-14T07:29:49;3.67;;;2.30;;
75680;SDS011;64294;49.176;16.626;2023-06-14T07:32:17;4.22;;;2.20;;
75680;SDS011;64294;49.176;16.626;2023-06-14T07:34:42;4.13;;;2.20;;
75680;SDS011;64294;49.176;16.626;2023-06-14T07:37:08;4.00;;;2.13;;
75680;SDS011;64294;49.176;16.626;2023-06-14T07:39:33;7.47;;;2.30;;
75680;SDS011;64294;49.176;16.626;2023-06-14T07:41:59;7.05;;;2.40;;
75680;SDS011;64294;49.176;16.626;2023-06-14T07:44:26;4.20;;;2.30;;
75680;SDS011;64294;49.176;16.626;2023-06-14T07:46:52;5.65;;;2.40;;
75680;SDS011;64294;49.176;16.626;2023-06-14T07:49:18;6.05;;;2.38;;
75680;SDS011;64294;49.176;16.626;2023-06-14T07:51:43;8.60;;;2.47;;
75680;SDS011;64294;49.176;16.626;2023-06-14T07:54:10;6.80;;;2.45;;
75680;SDS011;64294;49.176;16.626;2023-06-14T07:56:35;6.60;;;2.53;;
75680;SDS011;64294;49.176;16.626;2023-06-14T07:59:01;5.20;;;2.30;;
75680;SDS011;64294;49.176;16.626;2023-06-14T08:01:26;4.82;;;2.53;;
75680;SDS011;64294;49.176;16.626;2023-06-14T08:03:53;6.20;;;2.42;;
75680;SDS011;64294;49.176;16.626;2023-06-14T08:06:18;6.13;;;2.33;;
75680;SDS011;64294;49.176;16.626;2023-06-14T08:08:43;5.65;;;2.28;;
75680;SDS011;64294;49.176;16.626;2023-06-14T08:11:09;5.43;;;2.50;;
75680;SDS011;64294;49.176;16.626;2023-06-14T08:13:34;6.22;;;2.35;;
75680;SDS011;64294;49.176;16.626;2023-06-14T08:16:00;4.80;;;3.00;;
75680;SDS011;64294;49.176;16.626;2023-06-14T08:18:26;3.75;;;2.35;;
75680;SDS011;64294;49.176;16.626;2023-06-14T08:20:51;3.90;;;2.58;;
75680;SDS011;64294;49.176;16.626;2023-06-14T08:23:17;4.72;;;2.72;;
75680;SDS011;64294;49.176;16.626;2023-06-14T08:25:45;5.38;;;2.90;;
75680;SDS011;64294;49.176;16.626;2023-06-14T08:28:11;7.47;;;3.10;;
75680;SDS011;64294;49.176;16.626;2023-06-14T08:30:36;5.28;;;2.78;;
75680;SDS011;64294;49.176;16.626;2023-06-14T08:33:02;4.15;;;2.80;;
75680;SDS011;64294;49.176;16.626;2023-06-14T08:35:27;5.25;;;2.80;;
75680;SDS011;64294;49.176;16.626;2023-06-14T08:37:53;4.97;;;3.08;;
75680;SDS011;64294;49.176;16.626;2023-06-14T08:40:19;5.68;;;2.90;;
75680;SDS011;64294;49.176;16.626;2023-06-14T08:42:53;3.80;;;2.90;;
75680;SDS011;64294;49.176;16.626;2023-06-14T08:45:19;6.10;;;3.15;;
75680;SDS011;64294;49.176;16.626;2023-06-14T08:47:50;4.82;;;3.05;;
75680;SDS011;64294;49.176;16.626;2023-06-14T08:50:20;4.30;;;3.00;;
75680;SDS011;64294;49.176;16.626;2023-06-14T08:52:48;4.57;;;3.00;;
75680;SDS011;64294;49.176;16.626;2023-06-14T08:55:18;5.68;;;2.90;;
75680;SDS011;64294;49.176;16.626;2023-06-14T08:57:45;4.22;;;2.83;;
75680;SDS011;64294;49.176;16.626;2023-06-14T09:00:12;7.82;;;3.03;;
75680;SDS011;64294;49.176;16.626;2023-06-14T09:02:39;4.85;;;3.13;;
75680;SDS011;64294;49.176;16.626;2023-06-14T09:05:11;4.53;;;3.03;;
75680;SDS011;64294;49.176;16.626;2023-06-14T09:07:39;6.35;;;3.10;;
75680;SDS011;64294;49.176;16.626;2023-06-14T09:10:12;6.30;;;3.20;;
75680;SDS011;64294;49.176;16.626;2023-06-14T09:12:39;5.18;;;3.00;;
75680;SDS011;64294;49.176;16.626;2023-06-14T09:15:05;4.78;;;2.92;;
75680;SDS011;64294;49.176;16.626;2023-06-14T09:17:33;4.85;;;3.25;;
75680;SDS011;64294;49.176;16.626;2023-06-14T09:20:03;4.63;;;3.15;;
75680;SDS011;64294;49.176;16.626;2023-06-14T09:22:43;5.88;;;3.30;;
75680;SDS011;64294;49.176;16.626;2023-06-14T09:25:08;8.02;;;3.70;;
75680;SDS011;64294;49.176;16.626;2023-06-14T09:27:34;6.60;;;4.28;;
75680;SDS011;64294;49.176;16.626;2023-06-14T09:30:01;8.20;;;3.70;;
75680;SDS011;64294;49.176;16.626;2023-06-14T09:32:28;7.72;;;3.92;;
75680;SDS011;64294;49.176;16.626;2023-06-14T09:34:53;5.32;;;3.50;;
75680;SDS011;64294;49.176;16.626;2023-06-14T09:37:26;8.23;;;3.70;;
75680;SDS011;64294;49.176;16.626;2023-06-14T09:39:54;6.28;;;3.33;;
75680;SDS011;64294;49.176;16.626;2023-06-14T09:42:19;6.22;;;3.30;;
75680;SDS011;64294;49.176;16.626;2023-06-14T09:44:48;6.25;;;3.30;;
75680;SDS011;64294;49.176;16.626;2023-06-14T09:47:15;5.93;;;3.30;;
75680;SDS011;64294;49.176;16.626;2023-06-14T09:49:41;7.97;;;3.60;;
75680;SDS011;64294;49.176;16.626;2023-06-14T09:52:19;7.10;;;4.28;;
75680;SDS011;64294;49.176;16.626;2023-06-14T09:54:46;6.35;;;3.33;;
75680;SDS011;64294;49.176;16.626;2023-06-14T09:57:14;6.57;;;3.05;;
75680;SDS011;64294;49.176;16.626;2023-06-14T09:59:45;6.05;;;3.35;;
75680;SDS011;64294;49.176;16.626;2023-06-14T10:02:21;7.25;;;3.13;;
75680;SDS011;64294;49.176;16.626;2023-06-14T10:04:52;11.95;;;4.03;;
75680;SDS011;64294;49.176;16.626;2023-06-14T10:07:23;9.05;;;4.20;;
75680;SDS011;64294;49.176;16.626;2023-06-14T10:09:52;5.25;;;3.60;;
75680;SDS011;64294;49.176;16.626;2023-06-14T10:12:19;7.90;;;4.07;;
75680;SDS011;64294;49.176;16.626;2023-06-14T10:14:49;6.88;;;3.72;;
75680;SDS011;64294;49.176;16.626;2023-06-14T10:17:20;7.47;;;3.65;;
75680;SDS011;64294;49.176;16.626;2023-06-14T10:19:56;6.05;;;3.88;;
75680;SDS011;64294;49.176;16.626;2023-06-14T10:22:40;6.00;;;4.30;;
75680;SDS011;64294;49.176;16.626;2023-06-14T10:25:13;14.50;;;5.22;;
75680;SDS011;64294;49.176;16.626;2023-06-14T10:28:30;10.13;;;4.97;;
75680;SDS011;64294;49.176;16.626;2023-06-14T10:31:08;7.95;;;4.32;;
75680;SDS011;64294;49.176;16.626;2023-06-14T10:33:36;7.28;;;4.50;;
75680;SDS011;64294;49.176;16.626;2023-06-14T10:39:16;8.50;;;4.22;;
75680;SDS011;64294;49.176;16.626;2023-06-14T10:41:50;11.45;;;4.47;;
75680;SDS011;64294;49.176;16.626;2023-06-14T10:46:49;6.88;;;4.15;;
75680;SDS011;64294;49.176;16.626;2023-06-14T10:49:18;15.55;;;4.93;;
75680;SDS011;64294;49.176;16.626;2023-06-14T10:51:45;12.68;;;4.85;;
75680;SDS011;64294;49.176;16.626;2023-06-14T10:54:15;8.52;;;4.10;;
75680;SDS011;64294;49.176;16.626;2023-06-14T10:56:48;6.65;;;3.65;;
75680;SDS011;64294;49.176;16.626;2023-06-14T10:59:13;7.75;;;3.83;;
75680;SDS011;64294;49.176;16.626;2023-06-14T11:01:56;7.10;;;3.70;;
75680;SDS011;64294;49.176;16.626;2023-06-14T11:04:22;6.13;;;3.40;;
75680;SDS011;64294;49.176;16.626;2023-06-14T11:07:06;9.95;;;3.90;;
75680;SDS011;64294;49.176;16.626;2023-06-14T11:10:06;7.78;;;3.38;;
75680;SDS011;64294;49.176;16.626;2023-06-14T11:12:48;6.35;;;3.90;;
75680;SDS011;64294;49.176;16.626;2023-06-14T11:15:15;7.00;;;3.97;;
75680;SDS011;64294;49.176;16.626;2023-06-14T11:17:53;6.53;;;3.70;;
75680;SDS011;64294;49.176;16.626;2023-06-14T11:20:19;7.82;;;3.60;;
75680;SDS011;64294;49.176;16.626;2023-06-14T11:22:44;7.57;;;3.67;;
75680;SDS011;64294;49.176;16.626;2023-06-14T11:25:13;14.30;;;3.80;;
75680;SDS011;64294;49.176;16.626;2023-06-14T11:27:41;7.22;;;4.10;;
75680;SDS011;64294;49.176;16.626;2023-06-14T11:30:08;8.98;;;4.25;;
75680;SDS011;64294;49.176;16.626;2023-06-14T11:32:35;6.22;;;3.97;;
75680;SDS011;64294;49.176;16.626;2023-06-14T11:35:02;5.55;;;3.60;;
75680;SDS011;64294;49.176;16.626;2023-06-14T11:37:29;6.65;;;3.97;;
75680;SDS011;64294;49.176;16.626;2023-06-14T11:40:02;5.93;;;3.60;;
75680;SDS011;64294;49.176;16.626;2023-06-14T11:42:33;5.22;;;3.83;;
75680;SDS011;64294;49.176;16.626;2023-06-14T11:44:58;6.60;;;3.63;;
75680;SDS011;64294;49.176;16.626;2023-06-14T11:47:24;6.28;;;3.50;;
75680;SDS011;64294;49.176;16.626;2023-06-14T11:49:56;6.10;;;3.75;;
75680;SDS011;64294;49.176;16.626;2023-06-14T11:52:23;6.13;;;3.50;;
75680;SDS011;64294;49.176;16.626;2023-06-14T11:54:49;8.05;;;3.80;;
75680;SDS011;64294;49.176;16.626;2023-06-14T11:57:15;8.35;;;3.90;;
75680;SDS011;64294;49.176;16.626;2023-06-14T11:59:43;6.47;;;3.80;;
75680;SDS011;64294;49.176;16.626;2023-06-14T12:02:15;6.60;;;3.90;;
75680;SDS011;64294;49.176;16.626;2023-06-14T12:04:46;6.18;;;3.90;;
75680;SDS011;64294;49.176;16.626;2023-06-14T12:07:13;6.78;;;3.67;;
75680;SDS011;64294;49.176;16.626;2023-06-14T12:12:18;6.93;;;3.95;;
75680;SDS011;64294;49.176;16.626;2023-06-14T12:14:46;8.32;;;3.78;;
75680;SDS011;64294;49.176;16.626;2023-06-14T12:17:12;8.05;;;4.53;;
75680;SDS011;64294;49.176;16.626;2023-06-14T12:19:41;7.80;;;4.10;;
75680;SDS011;64294;49.176;16.626;2023-06-14T12:22:11;9.15;;;4.28;;
75680;SDS011;64294;49.176;16.626;2023-06-14T12:24:38;7.57;;;4.60;;
75680;SDS011;64294;49.176;16.626;2023-06-14T12:27:04;11.02;;;5.35;;
75680;SDS011;64294;49.176;16.626;2023-06-14T12:29:31;47.15;;;21.45;;
75680;SDS011;64294;49.176;16.626;2023-06-14T12:32:00;34.70;;;12.35;;
75680;SDS011;64294;49.176;16.626;2023-06-14T12:34:26;29.25;;;12.50;;
75680;SDS011;64294;49.176;16.626;2023-06-14T12:36:55;18.48;;;6.57;;
75680;SDS011;64294;49.176;16.626;2023-06-14T12:39:21;13.77;;;5.03;;
75680;SDS011;64294;49.176;16.626;2023-06-14T12:41:47;8.55;;;4.38;;
75680;SDS011;64294;49.176;16.626;2023-06-14T12:44:13;7.25;;;4.35;;
75680;SDS011;64294;49.176;16.626;2023-06-14T12:46:39;12.88;;;6.35;;
75680;SDS011;64294;49.176;16.626;2023-06-14T12:49:10;9.65;;;5.03;;
75680;SDS011;64294;49.176;16.626;2023-06-14T12:51:36;9.75;;;4.80;;
75680;SDS011;64294;49.176;16.626;2023-06-14T12:54:02;8.63;;;3.83;;
75680;SDS011;64294;49.176;16.626;2023-06-14T12:56:28;6.70;;;4.32;;
75680;SDS011;64294;49.176;16.626;2023-06-14T12:58:53;7.07;;;3.95;;
75680;SDS011;64294;49.176;16.626;2023-06-14T13:01:19;6.75;;;4.13;;
75680;SDS011;64294;49.176;16.626;2023-06-14T13:03:46;9.00;;;4.70;;
75680;SDS011;64294;49.176;16.626;2023-06-14T13:06:11;9.20;;;4.65;;
75680;SDS011;64294;49.176;16.626;2023-06-14T13:08:37;9.20;;;4.28;;
75680;SDS011;64294;49.176;16.626;2023-06-14T13:11:02;9.50;;;5.05;;
75680;SDS011;64294;49.176;16.626;2023-06-14T13:13:28;14.52;;;5.07;;
75680;SDS011;64294;49.176;16.626;2023-06-14T13:15:53;18.38;;;5.40;;
75680;SDS011;64294;49.176;16.626;2023-06-14T13:18:18;23.27;;;5.80;;
75680;SDS011;64294;49.176;16.626;2023-06-14T13:20:45;22.40;;;6.22;;
75680;SDS011;64294;49.176;16.626;2023-06-14T13:23:11;12.27;;;5.80;;
75680;SDS011;64294;49.176;16.626;2023-06-14T13:25:37;12.55;;;5.90;;
75680;SDS011;64294;49.176;16.626;2023-06-14T13:28:03;8.35;;;5.80;;
75680;SDS011;64294;49.176;16.626;2023-06-14T13:30:30;9.02;;;4.70;;
75680;SDS011;64294;49.176;16.626;2023-06-14T13:32:56;11.10;;;5.00;;
75680;SDS011;64294;49.176;16.626;2023-06-14T13:35:22;10.10;;;5.45;;
75680;SDS011;64294;49.176;16.626;2023-06-14T13:37:48;8.57;;;4.93;;
75680;SDS011;64294;49.176;16.626;2023-06-14T13:40:13;8.63;;;4.95;;
75680;SDS011;64294;49.176;16.626;2023-06-14T13:42:39;8.02;;;4.75;;
75680;SDS011;64294;49.176;16.626;2023-06-14T13:45:05;7.78;;;5.25;;
75680;SDS011;64294;49.176;16.626;2023-06-14T13:47:32;7.15;;;5.15;;
75680;SDS011;64294;49.176;16.626;2023-06-14T13:49:57;28.25;;;5.70;;
75680;SDS011;64294;49.176;16.626;2023-06-14T13:52:23;7.47;;;4.63;;
75680;SDS011;64294;49.176;16.626;2023-06-14T13:54:49;8.40;;;4.93;;
75680;SDS011;64294;49.176;16.626;2023-06-14T13:57:15;8.27;;;5.20;;
75680;SDS011;64294;49.176;16.626;2023-06-14T13:59:41;8.05;;;4.65;;
75680;SDS011;64294;49.176;16.626;2023-06-14T14:02:09;10.80;;;4.85;;
75680;SDS011;64294;49.176;16.626;2023-06-14T14:04:36;10.77;;;4.80;;
75680;SDS011;64294;49.176;16.626;2023-06-14T14:07:03;7.85;;;4.63;;
75680;SDS011;64294;49.176;16.626;2023-06-14T14:09:29;8.68;;;4.70;;
75680;SDS011;64294;49.176;16.626;2023-06-14T14:11:55;6.28;;;4.07;;
75680;SDS011;64294;49.176;16.626;2023-06-14T14:14:21;8.93;;;3.90;;
75680;SDS011;64294;49.176;16.626;2023-06-14T14:16:48;6.13;;;3.72;;
75680;SDS011;64294;49.176;16.626;2023-06-14T14:19:17;5.47;;;3.50;;
75680;SDS011;64294;49.176;16.626;2023-06-14T14:21:44;7.07;;;3.47;;
75680;SDS011;64294;49.176;16.626;2023-06-14T14:24:09;5.45;;;3.55;;
75680;SDS011;64294;49.176;16.626;2023-06-14T14:26:35;5.47;;;3.60;;
75680;SDS011;64294;49.176;16.626;2023-06-14T14:29:00;5.22;;;3.60;;
75680;SDS011;64294;49.176;16.626;2023-06-14T14:31:27;4.93;;;3.50;;
75680;SDS011;64294;49.176;16.626;2023-06-14T14:33:53;6.40;;;3.70;;
75680;SDS011;64294;49.176;16.626;2023-06-14T14:36:18;10.43;;;4.25;;
75680;SDS011;64294;49.176;16.626;2023-06-14T14:38:46;17.38;;;4.82;;
75680;SDS011;64294;49.176;16.626;2023-06-14T14:41:13;16.80;;;4.47;;
75680;SDS011;64294;49.176;16.626;2023-06-14T14:43:38;22.08;;;5.18;;
75680;SDS011;64294;49.176;16.626;2023-06-14T14:46:04;12.45;;;4.43;;
75680;SDS011;64294;49.176;16.626;2023-06-14T14:48:30;9.98;;;4.22;;
75680;SDS011;64294;49.176;16.626;2023-06-14T14:50:56;16.02;;;5.15;;